Главная страница
METAR-TAF:

METAR-TAF

Аэропорты :

Ангилья, Ангилья

широта: 18-12-17N, долгота: 063-03-18W, высота над уровнем моря: 31 м

Текущие метеонаблюдения

Эта сводка был подготовлена 30 минут назад, в 18:00 UTC
Ветер 10 Узел от восточно-юго-восточный
Температура 28°C
Влажность 62%
Давление 1017 hPa
Видимость 10 км и более
небольшая облачность на высоте 2000 фута

METAR: TQPF 121800Z 12010KT 9999 FEW020 28/20 Q1017

Время: 14:30 (18:30 UTC)

Прогноз

Эта сводка был подготовлена 1 час и 30 минут назад, в 17:00 UTC
Прогноз действительный с 12-го 18 UTC до 13-го 18 UTC
Ветер 11 Узел от восточный
Видимость 10 км и более
Отдельные облака на высоте 2000 фута

TAF: TQPF 121700Z 1218/1318 10011KT 9999 SCT020

Метеонаблюдения и прогнозы для более 4000 аэропортов (сводки METAR и TAF).

Имеющиеся станции представлены на карте желтыми и красными точками.

Чтобы увидеть название станции, наведите на нее мышь.

Затем щелкните, чтобы увидеть метеонаблюдения и метеопрогнозы.

Управление картой: чтобы увеличить масштаб, щелкните зеленые кнопки с черным крестиком; чтобы уменьшить масштаб, щелкните зеленую кнопку с тире; для просмотра соседних карт щелкайте зеленые стрелки.


METAR-TAF: